Time;durP1;ratioP1;P1;durP2;ratioP2;P2;SDS_P1;SDS_P2;PMS_P1;PMS_P2;Temp;Humidity;BMP_temperature;BMP_pressure;BME280_temperature;BME280_humidity;BME280_pressure;Samples;Min_cycle;Max_cycle;Signal;HPM_P1;HPM_P2
2023/10/17 00:00:39;;;;;;;10.32;6.25;;;;;;;7.80;100.00;102114.31;5026796;28;20420;-64
2023/10/17 00:03:05;;;;;;;11.35;5.75;;;;;;;7.82;100.00;102130.97;5028506;28;20052;-63
2023/10/17 00:05:31;;;;;;;12.43;5.20;;;;;;;7.87;100.00;102127.44;5027524;28;20029;-63
2023/10/17 00:07:58;;;;;;;9.35;5.57;;;;;;;7.88;100.00;102121.31;5027696;28;20075;-62
2023/10/17 00:10:24;;;;;;;8.32;5.38;;;;;;;7.90;100.00;102116.94;5027756;28;20056;-64
2023/10/17 00:12:52;;;;;;;13.75;6.20;;;;;;;7.82;100.00;102114.31;5027963;28;20060;-64
2023/10/17 00:17:50;;;;;;;9.25;5.38;;;;;;;7.91;100.00;102110.81;5007286;28;20129;-62
2023/10/17 00:20:17;;;;;;;10.82;5.90;;;;;;;7.92;100.00;102104.69;5008070;28;20497;-64
2023/10/17 00:22:42;;;;;;;9.40;5.55;;;;;;;7.90;100.00;102101.19;5006322;28;20030;-63
2023/10/17 00:25:10;;;;;;;12.40;5.78;;;;;;;7.89;100.00;102107.34;5008219;28;20021;-63
2023/10/17 00:27:37;;;;;;;10.17;5.50;;;;;;;7.83;100.00;102106.44;5008097;28;20034;-64
2023/10/17 00:30:03;;;;;;;7.90;5.50;;;;;;;7.81;100.00;102102.97;5023686;28;20026;-66
2023/10/17 00:32:31;;;;;;;10.93;5.22;;;;;;;7.80;100.00;102106.44;5028108;28;20072;-63
2023/10/17 00:34:57;;;;;;;11.93;5.80;;;;;;;7.70;100.00;102094.22;5027507;28;20101;-63
2023/10/17 00:37:30;;;;;;;10.70;5.63;;;;;;;7.74;100.00;102101.25;5027065;28;20029;-64
2023/10/17 00:39:56;;;;;;;14.75;5.47;;;;;;;7.80;100.00;102095.97;5027737;28;20025;-64
2023/10/17 00:42:29;;;;;;;10.90;5.32;;;;;;;7.88;100.00;102098.56;5027598;28;20032;-64
2023/10/17 00:44:55;;;;;;;8.52;4.85;;;;;;;7.88;100.00;102092.44;5026401;28;20109;-63
2023/10/17 00:47:22;;;;;;;11.50;5.35;;;;;;;7.95;100.00;102089.81;5028154;28;20239;-63
2023/10/17 00:49:49;;;;;;;11.55;5.18;;;;;;;7.96;100.00;102085.44;5022401;28;20029;-65
2023/10/17 00:52:32;;;;;;;10.60;5.13;;;;;;;7.95;100.00;102089.81;5007745;28;20157;-63
2023/10/17 00:54:59;;;;;;;12.65;5.25;;;;;;;7.99;100.00;102090.69;5007390;28;20636;-63
2023/10/17 00:57:27;;;;;;;9.80;5.28;;;;;;;7.99;100.00;102093.31;5008213;28;20029;-64
2023/10/17 00:59:57;;;;;;;13.18;5.00;;;;;;;7.95;100.00;102088.94;5007792;28;20034;-64
2023/10/17 01:02:24;;;;;;;6.00;4.68;;;;;;;7.93;100.00;102088.06;5007121;28;20061;-64
2023/10/17 01:04:58;;;;;;;7.10;4.57;;;;;;;7.93;100.00;102088.94;5006325;28;20057;-63
2023/10/17 01:07:30;;;;;;;7.57;4.43;;;;;;;7.91;100.00;102081.94;5006838;28;20026;-63
2023/10/17 01:10:00;;;;;;;14.32;5.03;;;;;;;7.84;100.00;102079.34;5005289;28;20026;-63
2023/10/17 01:12:27;;;;;;;11.40;4.75;;;;;;;7.80;100.00;102072.34;5008023;28;20026;-64
2023/10/17 01:14:55;;;;;;;9.90;4.75;;;;;;;7.80;100.00;102069.72;5007089;28;20034;-63
2023/10/17 01:17:25;;;;;;;10.95;4.28;;;;;;;7.84;100.00;102074.09;5010424;28;20391;-63
2023/10/17 01:19:53;;;;;;;9.13;4.55;;;;;;;7.86;100.00;102073.22;5011077;28;20026;-64
2023/10/17 01:22:20;;;;;;;12.80;5.30;;;;;;;7.84;100.00;102065.34;5009731;28;20385;-63
2023/10/17 01:24:45;;;;;;;13.38;4.80;;;;;;;7.81;100.00;102060.09;5011751;28;20540;-64
2023/10/17 01:27:13;;;;;;;8.57;4.80;;;;;;;7.86;100.00;102060.97;5025268;28;20033;-64
2023/10/17 01:29:41;;;;;;;7.60;4.78;;;;;;;7.84;100.00;102055.72;5031349;28;20431;-64
2023/10/17 01:32:09;;;;;;;12.00;4.68;;;;;;;7.83;100.00;102053.97;5016924;28;20030;-64
2023/10/17 01:34:36;;;;;;;10.88;5.97;;;;;;;7.83;100.00;102053.97;5011198;28;20064;-67
2023/10/17 01:37:03;;;;;;;11.88;5.18;;;;;;;7.84;100.00;102057.47;5009983;28;20133;-64
2023/10/17 01:39:29;;;;;;;9.82;5.57;;;;;;;7.79;100.00;102052.25;5011539;28;20065;-64
2023/10/17 01:41:54;;;;;;;14.93;4.93;;;;;;;7.84;100.00;102049.59;5011067;28;20030;-64
2023/10/17 01:44:20;;;;;;;11.32;4.60;;;;;;;7.84;100.00;102050.50;5011084;28;20106;-64
2023/10/17 01:46:46;;;;;;;10.70;4.63;;;;;;;7.79;100.00;102047.00;5009779;28;20488;-64
2023/10/17 01:49:12;;;;;;;9.30;4.70;;;;;;;7.79;100.00;102047.00;5010724;28;20042;-63
2023/10/17 01:51:41;;;;;;;10.40;4.72;;;;;;;7.84;100.00;102037.38;5009657;28;20641;-63
2023/10/17 01:54:08;;;;;;;6.78;4.55;;;;;;;7.80;100.00;102034.75;5010176;28;20022;-65
2023/10/17 01:56:38;;;;;;;9.10;4.38;;;;;;;7.80;100.00;102043.47;5010654;28;20026;-65
2023/10/17 01:59:12;;;;;;;8.88;4.55;;;;;;;7.88;100.00;102042.56;5010566;28;20088;-63
2023/10/17 02:01:40;;;;;;;10.65;4.82;;;;;;;7.77;100.00;102037.38;5012142;28;20080;-64
2023/10/17 02:04:10;;;;;;;8.65;4.72;;;;;;;7.75;100.00;102034.75;5029469;28;20048;-64
2023/10/17 02:06:36;;;;;;;7.57;4.53;;;;;;;7.78;100.00;102028.63;5029424;28;20029;-63
2023/10/17 02:09:18;;;;;;;6.32;3.85;;;;;;;7.89;100.00;102018.09;5030138;28;20033;-63
2023/10/17 02:11:43;;;;;;;12.35;4.65;;;;;;;7.98;100.00;102023.31;5030229;28;20029;-66
2023/10/17 02:14:09;;;;;;;9.52;3.30;;;;;;;7.97;100.00;102013.69;5030335;28;20031;-63
2023/10/17 02:16:35;;;;;;;6.82;3.67;;;;;;;7.88;100.00;102021.59;5029982;28;20032;-65
2023/10/17 02:19:07;;;;;;;5.88;3.17;;;;;;;7.88;100.00;102019.84;5015762;28;20125;-64
2023/10/17 02:21:32;;;;;;;6.90;3.50;;;;;;;7.85;100.00;102027.72;5009922;28;20471;-65
2023/10/17 02:24:01;;;;;;;5.13;3.25;;;;;;;7.78;100.00;102019.00;5009148;28;20488;-63
2023/10/17 02:26:28;;;;;;;7.25;3.95;;;;;;;7.83;100.00;102026.88;5009874;28;20037;-64
2023/10/17 02:28:59;;;;;;;11.55;3.65;;;;;;;7.88;100.00;102030.34;5015555;28;20506;-64
2023/10/17 02:31:29;;;;;;;7.05;3.08;;;;;;;7.94;100.00;102026.81;5029968;28;20048;-64
2023/10/17 02:33:55;;;;;;;9.77;3.22;;;;;;;7.87;100.00;102030.34;5028821;28;20472;-63
2023/10/17 02:36:20;;;;;;;8.65;3.53;;;;;;;7.90;100.00;102025.97;5028457;28;20548;-64
2023/10/17 02:38:45;;;;;;;9.73;3.28;;;;;;;7.95;100.00;102024.19;5028490;28;20113;-64
2023/10/17 02:41:28;;;;;;;4.03;3.10;;;;;;;7.96;100.00;102025.94;5019500;28;20477;-63
2023/10/17 02:43:54;;;;;;;7.03;2.60;;;;;;;7.98;100.00;102020.69;5010210;28;20033;-64
2023/10/17 02:46:21;;;;;;;5.00;2.95;;;;;;;7.98;100.00;102025.94;5009377;28;20440;-63
2023/10/17 02:48:47;;;;;;;7.72;2.90;;;;;;;7.99;100.00;102026.81;5009404;28;20718;-64
2023/10/17 02:51:45;;;;;;;6.05;2.80;;;;;;;7.99;100.00;102029.44;5009580;28;20022;-64
2023/10/17 02:54:05;;;;;;;8.57;3.55;;;;;;;7.91;100.00;102027.72;5006587;28;20113;-65
2023/10/17 02:56:37;;;;;;;8.05;3.00;;;;;;;7.89;100.00;102025.97;5009919;28;20096;-66
2023/10/17 02:59:06;;;;;;;9.20;3.17;;;;;;;7.78;100.00;102023.38;5008357;28;20048;-66
2023/10/17 03:01:36;;;;;;;7.85;3.25;;;;;;;7.80;100.00;102025.09;5010426;28;20029;-62
2023/10/17 03:04:07;;;;;;;6.18;3.00;;;;;;;7.89;100.00;102026.81;5009130;28;20091;-65
2023/10/17 03:06:39;;;;;;;6.20;3.03;;;;;;;7.92;100.00;102023.34;5009773;28;20366;-65
2023/10/17 03:11:48;;;;;;;7.82;3.00;;;;;;;7.91;100.00;102021.56;5009609;28;20485;-64
2023/10/17 03:14:19;;;;;;;7.47;2.92;;;;;;;7.94;100.00;102013.69;5008449;28;20120;-63
2023/10/17 03:16:52;;;;;;;6.35;3.28;;;;;;;7.92;100.00;102012.84;5008081;28;20030;-64
2023/10/17 03:19:26;;;;;;;6.22;3.05;;;;;;;7.96;100.00;102027.69;5009824;28;20033;-64
2023/10/17 03:21:56;;;;;;;8.65;2.90;;;;;;;7.99;100.00;102029.44;5008364;28;20031;-64
2023/10/17 03:27:48;;;;;;;5.25;3.03;;;;;;;7.84;100.00;102031.22;4968004;28;20138;-63
2023/10/17 03:30:14;;;;;;;5.28;3.15;;;;;;;7.86;100.00;102033.84;5022168;28;20037;-64
2023/10/17 03:32:58;;;;;;;17.67;4.18;;;;;;;7.77;100.00;102030.38;5028618;28;20160;-63
2023/10/17 03:35:24;;;;;;;11.27;3.97;;;;;;;7.68;100.00;102030.41;5028641;28;20476;-64
2023/10/17 03:37:49;;;;;;;6.10;3.58;;;;;;;7.66;100.00;102022.53;5026971;28;20030;-63
2023/10/17 03:40:19;;;;;;;8.30;3.78;;;;;;;7.72;100.00;102029.53;5026684;28;20679;-65
2023/10/17 03:42:53;;;;;;;6.35;3.28;;;;;;;7.77;100.00;102033.00;5027046;28;20021;-64
2023/10/17 03:45:25;;;;;;;7.82;3.58;;;;;;;7.72;100.00;102029.53;5028778;28;20108;-65
2023/10/17 03:47:57;;;;;;;9.25;4.72;;;;;;;7.64;100.00;102032.16;5027929;28;20021;-63
2023/10/17 03:53:07;;;;;;;11.50;3.67;;;;;;;7.54;100.00;102039.19;5027266;28;20037;-64
2023/10/17 03:55:34;;;;;;;9.15;4.32;;;;;;;7.63;100.00;102046.16;5027972;28;20032;-64
2023/10/17 03:58:00;;;;;;;9.15;3.83;;;;;;;7.60;100.00;102051.41;5027063;28;20037;-63
2023/10/17 04:00:45;;;;;;;7.05;3.47;;;;;;;7.61;100.00;102057.53;5027890;28;20113;-65
2023/10/17 04:03:19;;;;;;;9.32;3.83;;;;;;;7.65;100.00;102054.88;5026856;28;20071;-64
2023/10/17 04:05:49;;;;;;;6.97;4.07;;;;;;;7.63;100.00;102050.53;5026576;28;20357;-63
2023/10/17 04:08:26;;;;;;;8.43;3.58;;;;;;;7.61;100.00;102050.53;5024745;28;20029;-62
2023/10/17 04:11:08;;;;;;;8.30;4.10;;;;;;;7.61;100.00;102047.03;5008156;28;20033;-64
2023/10/17 04:13:34;;;;;;;10.68;3.80;;;;;;;7.58;100.00;102048.78;5007819;28;20060;-64
2023/10/17 04:16:08;;;;;;;9.43;3.83;;;;;;;7.56;100.00;102054.91;5008517;28;20453;-65
2023/10/17 04:18:37;;;;;;;9.05;3.28;;;;;;;7.65;100.00;102049.63;5007896;28;20375;-64
2023/10/17 04:21:26;;;;;;;6.47;3.88;;;;;;;7.54;100.00;102040.91;5007301;28;20026;-64
2023/10/17 04:23:51;;;;;;;9.02;3.50;;;;;;;7.61;100.00;102047.91;5007746;28;20022;-65
2023/10/17 04:26:26;;;;;;;5.50;3.33;;;;;;;7.66;100.00;102048.78;5007740;28;20691;-64
2023/10/17 04:28:52;;;;;;;9.73;3.58;;;;;;;7.60;100.00;102046.16;5013545;28;21374;-64
2023/10/17 04:31:25;;;;;;;4.82;3.33;;;;;;;7.66;100.00;102050.53;5027663;28;20022;-63
2023/10/17 04:33:56;;;;;;;7.38;3.63;;;;;;;7.59;100.00;102045.28;5025310;28;20038;-63
2023/10/17 04:36:21;;;;;;;9.35;4.00;;;;;;;7.61;100.00;102036.56;5027774;28;20047;-65
2023/10/17 04:38:55;;;;;;;5.53;2.95;;;;;;;7.65;100.00;102041.75;5026502;28;20112;-63
2023/10/17 04:41:40;;;;;;;9.07;3.75;;;;;;;7.66;100.00;102035.66;5027879;28;20026;-64
2023/10/17 04:44:15;;;;;;;13.02;4.22;;;;;;;7.57;100.00;102033.06;5026314;28;20108;-64
2023/10/17 04:46:49;;;;;;;10.70;3.80;;;;;;;7.64;100.00;102033.91;5013214;28;20062;-64
2023/10/17 04:49:18;;;;;;;14.27;4.32;;;;;;;7.53;100.00;102029.53;5007856;28;20026;-65
2023/10/17 04:51:44;;;;;;;7.30;3.80;;;;;;;7.57;100.00;102027.81;5009805;28;20026;-65
2023/10/17 04:54:39;;;;;;;11.30;4.22;;;;;;;7.55;100.00;102038.31;5011522;28;20022;-65
2023/10/17 04:57:04;;;;;;;7.78;4.10;;;;;;;7.59;100.00;102028.69;5011642;28;20488;-63
2023/10/17 06:18:42;;;;;;;16.98;7.22;;;;;;;6.66;100.00;102012.13;4993796;28;20037;-63
2023/10/17 06:21:07;;;;;;;15.90;7.57;;;;;;;6.70;100.00;102011.25;5008555;28;20668;-62
2023/10/17 06:34:21;;;;;;;13.10;5.72;;;;;;;6.73;100.00;102007.75;5007921;28;20037;-64
2023/10/17 06:36:59;;;;;;;10.13;4.82;;;;;;;6.78;100.00;102011.25;5004435;28;20026;-64
2023/10/17 06:39:26;;;;;;;11.98;5.00;;;;;;;6.82;100.00;102015.63;5008640;28;20415;-63
2023/10/17 06:41:55;;;;;;;8.35;4.75;;;;;;;6.82;100.00;102025.22;5007761;28;20017;-64
2023/10/17 06:44:23;;;;;;;15.25;3.92;;;;;;;6.85;100.00;102024.34;5008817;28;20102;-64
2023/10/17 06:46:55;;;;;;;8.32;4.88;;;;;;;6.83;100.00;102021.72;5006394;28;20157;-65
2023/10/17 06:54:50;;;;;;;12.93;5.18;;;;;;;6.86;100.00;102031.34;5026716;28;20041;-64
2023/10/17 06:57:24;;;;;;;9.05;4.72;;;;;;;6.79;100.00;102026.09;5027748;28;20025;-64
2023/10/17 06:59:54;;;;;;;9.38;4.90;;;;;;;6.79;100.00;102020.88;5028662;28;20040;-64
2023/10/17 07:02:27;;;;;;;;;;;;;;;6.82;100.00;102019.97;5026906;28;20026;-63
2023/10/17 07:04:56;;;;;;;10.32;4.38;;;;;;;6.85;100.00;102021.72;5028226;28;20306;-63
2023/10/17 07:07:23;;;;;;;12.35;4.88;;;;;;;6.84;100.00;102023.50;5027385;28;20029;-64
2023/10/17 07:10:07;;;;;;;6.97;4.55;;;;;;;6.85;100.00;102020.00;5027653;28;20061;-66
2023/10/17 07:12:33;;;;;;;12.25;4.85;;;;;;;6.93;100.00;102025.25;5026865;28;20409;-65
2023/10/17 07:14:59;;;;;;;13.27;5.05;;;;;;;7.03;100.00;102029.63;5026138;28;20468;-64
2023/10/17 07:17:28;;;;;;;10.60;5.10;;;;;;;7.03;100.00;102019.13;5026605;28;20026;-62
2023/10/17 07:20:00;;;;;;;7.75;4.88;;;;;;;7.09;100.00;102020.88;5028127;28;20017;-64
2023/10/17 07:22:35;;;;;;;8.43;4.25;;;;;;;7.15;100.00;102020.88;5027930;28;20025;-61
2023/10/17 07:25:02;;;;;;;9.70;4.70;;;;;;;7.22;100.00;102019.09;5027401;28;20033;-63
2023/10/17 07:27:29;;;;;;;11.63;4.97;;;;;;;7.28;100.00;102021.72;5026806;28;20049;-62
2023/10/17 07:29:58;;;;;;;8.52;4.53;;;;;;;7.35;100.00;102022.59;5027251;28;20026;-65
2023/10/17 07:32:25;;;;;;;8.50;4.40;;;;;;;7.49;100.00;102021.72;5028378;28;20052;-62
2023/10/17 07:34:52;;;;;;;12.30;4.70;;;;;;;7.55;100.00;102017.31;5025765;28;20034;-64
